createdAt,value
2022-10-28T00:03:53.007Z,110.18
2022-10-28T00:08:58.715Z,108.32
2022-10-28T00:14:04.664Z,107.68
2022-10-28T00:19:11.263Z,103.50
2022-10-28T00:24:16.347Z,95.00
2022-10-28T00:29:20.904Z,103.03
2022-10-28T00:34:24.345Z,106.85
2022-10-28T00:39:29.214Z,98.57
2022-10-28T00:44:50.782Z,84.68
2022-10-28T00:49:58.506Z,86.30
2022-10-28T00:55:04.456Z,81.97
2022-10-28T01:00:09.365Z,75.88
2022-10-28T01:05:15.629Z,77.60
2022-10-28T01:10:24.729Z,74.78
2022-10-28T01:15:35.018Z,70.47
2022-10-28T01:20:55.752Z,60.28
2022-10-28T01:26:31.318Z,60.95
2022-10-28T01:31:43.520Z,63.95
2022-10-28T01:36:57.885Z,60.15
2022-10-28T01:42:14.810Z,61.50
2022-10-28T01:47:24.199Z,63.05
2022-10-28T01:52:31.103Z,57.58
2022-10-28T01:57:37.132Z,61.85
2022-10-28T02:02:43.190Z,60.25
2022-10-28T02:07:47.316Z,57.60
2022-10-28T02:12:55.649Z,60.17
2022-10-28T02:18:13.664Z,64.50
2022-10-28T02:23:27.410Z,63.13
2022-10-28T02:28:40.435Z,54.55
2022-10-28T02:33:49.612Z,67.90
2022-10-28T02:38:57.321Z,62.87
2022-10-28T02:44:04.304Z,62.33
2022-10-28T02:49:11.763Z,63.97
2022-10-28T02:54:18.879Z,62.47
2022-10-28T02:59:25.537Z,64.13
2022-10-28T03:04:30.293Z,59.80
2022-10-28T03:09:33.627Z,53.83
2022-10-28T03:14:37.067Z,55.25
2022-10-28T03:19:41.994Z,62.85
2022-10-28T03:24:45.398Z,61.42
2022-10-28T03:29:48.804Z,55.22
2022-10-28T03:34:53.545Z,67.13
2022-10-28T03:39:56.918Z,66.57
2022-10-28T03:45:00.295Z,67.93
2022-10-28T03:50:05.665Z,66.13
2022-10-28T03:55:09.811Z,73.38
2022-10-28T04:00:14.821Z,73.30
2022-10-28T04:05:20.029Z,82.47
2022-10-28T04:10:23.480Z,89.53
2022-10-28T04:15:26.865Z,83.35
2022-10-28T04:20:32.345Z,85.75
2022-10-28T04:25:35.768Z,82.22
2022-10-28T04:30:39.191Z,71.82
2022-10-28T04:35:44.081Z,75.70
2022-10-28T04:40:49.134Z,68.88
2022-10-28T04:45:52.547Z,59.22
2022-10-28T04:50:58.349Z,65.55
2022-10-28T04:56:01.902Z,62.65
2022-10-28T05:01:10.162Z,54.50
2022-10-28T05:06:15.069Z,66.32
2022-10-28T05:11:18.467Z,64.32
2022-10-28T05:16:22.127Z,57.53
2022-10-28T05:21:26.845Z,55.75
2022-10-28T05:26:30.174Z,48.60
2022-10-28T05:31:33.919Z,42.80
2022-10-28T05:36:38.905Z,42.35
2022-10-28T05:41:42.411Z,45.45
2022-10-28T05:46:45.803Z,45.28
2022-10-28T05:51:50.494Z,52.45
2022-10-28T05:56:53.864Z,46.10
2022-10-28T06:01:57.259Z,39.28
2022-10-28T06:07:02.052Z,45.17
2022-10-28T06:12:06.869Z,42.50
2022-10-28T06:17:10.439Z,39.10
2022-10-28T06:22:17.504Z,37.20
2022-10-28T06:27:22.261Z,31.58
2022-10-28T06:32:26.243Z,27.27
2022-10-28T06:37:31.106Z,33.50
2022-10-28T06:42:34.622Z,26.25
2022-10-28T06:47:41.552Z,32.92
2022-10-28T06:52:46.652Z,37.30
2022-10-28T06:57:50.300Z,28.20
2022-10-28T07:02:56.185Z,37.33
2022-10-28T07:08:01.099Z,26.30
2022-10-28T07:13:05.051Z,23.70
2022-10-28T07:18:08.385Z,24.60
2022-10-28T07:23:13.180Z,17.17
2022-10-28T07:28:16.557Z,19.00
2022-10-28T07:33:20.246Z,18.88
2022-10-28T07:38:24.997Z,19.80
2022-10-28T07:43:28.315Z,20.75
2022-10-28T07:48:31.725Z,19.00
2022-10-28T07:53:36.432Z,19.17
2022-10-28T07:58:40.203Z,23.45
2022-10-28T08:03:43.794Z,12.45
2022-10-28T08:08:50.107Z,14.30
2022-10-28T08:13:55.314Z,13.07
2022-10-28T08:18:58.726Z,10.57
2022-10-28T08:24:03.515Z,13.88
2022-10-28T08:29:08.165Z,11.68
2022-10-28T08:34:11.604Z,12.05
2022-10-28T08:39:16.416Z,10.50
2022-10-28T08:44:43.892Z,14.30
2022-10-28T08:49:51.505Z,11.48
2022-10-28T08:55:02.120Z,14.77
2022-10-28T09:00:08.600Z,13.90
2022-10-28T09:05:21.699Z,14.25
2022-10-28T09:10:42.770Z,17.05
2022-10-28T09:15:52.184Z,14.45
2022-10-28T09:20:57.838Z,10.95
2022-10-28T09:26:13.905Z,16.75
2022-10-28T09:31:24.553Z,10.57
2022-10-28T09:36:33.488Z,11.07
2022-10-28T09:41:41.118Z,12.77
2022-10-28T09:46:48.073Z,15.48
2022-10-28T09:51:56.977Z,12.75
2022-10-28T09:57:02.964Z,11.70
2022-10-28T10:02:07.057Z,8.60
2022-10-28T10:07:15.050Z,13.25
2022-10-28T10:12:20.232Z,12.10
2022-10-28T10:17:28.356Z,13.27
2022-10-28T10:22:33.926Z,9.65
2022-10-28T10:27:38.761Z,8.20
2022-10-28T10:32:48.223Z,10.05
2022-10-28T10:37:53.665Z,14.38
2022-10-28T10:43:20.094Z,12.60
2022-10-28T10:48:23.551Z,13.60
2022-10-28T10:53:28.801Z,7.85
2022-10-28T10:58:35.572Z,9.65
2022-10-28T11:03:48.881Z,6.32
2022-10-28T11:08:58.086Z,12.88
2022-10-28T11:14:08.758Z,9.20
2022-10-28T11:19:21.526Z,8.68
2022-10-28T11:24:37.695Z,7.55
2022-10-28T11:29:42.659Z,8.45
2022-10-28T11:35:07.896Z,6.00
2022-10-28T11:40:25.525Z,5.47
2022-10-28T11:45:36.529Z,6.00
2022-10-28T11:50:55.416Z,6.07
2022-10-28T11:56:11.729Z,4.97
2022-10-28T12:01:32.950Z,5.22
2022-10-28T12:06:54.947Z,9.20
2022-10-28T12:12:13.992Z,10.73
2022-10-28T12:17:25.189Z,6.60
2022-10-28T12:22:32.385Z,6.13
2022-10-28T12:27:41.440Z,6.30
2022-10-28T12:32:47.302Z,5.67
2022-10-28T12:37:55.665Z,8.45
2022-10-28T12:43:04.797Z,6.90
2022-10-28T12:48:25.622Z,9.83
2022-10-28T12:53:36.068Z,5.55
2022-10-28T12:58:53.177Z,8.75
2022-10-28T13:03:59.018Z,8.50
2022-10-28T13:09:19.464Z,5.28
2022-10-28T13:14:42.210Z,4.70
2022-10-28T13:20:03.204Z,5.35
2022-10-28T13:25:23.596Z,6.57
2022-10-28T13:30:28.314Z,4.88
2022-10-28T13:35:33.910Z,6.20
2022-10-28T13:41:27.089Z,8.00
2022-10-28T13:47:08.215Z,8.07
2022-10-28T13:52:22.206Z,7.40
2022-10-28T13:57:32.020Z,12.35
2022-10-28T14:02:39.967Z,8.97
2022-10-28T14:07:56.953Z,6.10
2022-10-28T14:13:03.641Z,6.68
2022-10-28T14:18:42.081Z,11.73
2022-10-28T14:24:09.370Z,7.32
2022-10-28T14:29:24.829Z,8.18
2022-10-28T14:34:40.579Z,8.90
2022-10-28T14:40:02.628Z,7.28
2022-10-28T14:45:24.374Z,11.07
2022-10-28T14:50:38.392Z,8.55
2022-10-28T14:55:47.813Z,11.25
2022-10-28T15:01:10.642Z,7.28
2022-10-28T15:06:32.461Z,9.77
2022-10-28T15:11:37.967Z,9.43
2022-10-28T15:16:48.867Z,9.18
2022-10-28T15:22:06.467Z,9.52
2022-10-28T15:27:14.573Z,13.07
2022-10-28T15:32:27.838Z,13.63
2022-10-28T15:37:35.856Z,11.23
2022-10-28T15:42:45.026Z,14.27
2022-10-28T15:47:49.833Z,17.17
2022-10-28T15:52:54.827Z,17.60
2022-10-28T15:58:01.649Z,18.33
2022-10-28T16:03:08.435Z,19.83
2022-10-28T16:08:18.322Z,25.98
2022-10-28T16:18:31.075Z,19.52
2022-10-28T16:23:39.700Z,19.67
2022-10-28T16:28:45.490Z,22.55
2022-10-28T16:33:49.897Z,21.75
2022-10-28T16:38:53.260Z,23.88
2022-10-28T16:43:59.350Z,25.30
2022-10-28T16:49:02.798Z,25.17
2022-10-28T16:54:06.162Z,27.65
2022-10-28T16:59:10.945Z,27.83
2022-10-28T17:04:14.306Z,26.38
2022-10-28T17:09:17.941Z,30.13
2022-10-28T17:14:22.785Z,41.08
2022-10-28T17:19:26.378Z,37.25
2022-10-28T17:24:32.128Z,40.95
2022-10-28T17:29:37.245Z,35.45
2022-10-28T17:34:40.695Z,35.40
2022-10-28T17:39:44.205Z,45.20
2022-10-28T17:44:49.037Z,36.58
2022-10-28T17:49:52.433Z,51.80
2022-10-28T17:54:56.725Z,45.63
2022-10-28T18:00:01.516Z,75.70
2022-10-28T18:05:15.129Z,38.70
2022-10-28T18:10:18.711Z,46.60
2022-10-28T18:15:23.703Z,36.90
2022-10-28T18:20:27.060Z,39.20
2022-10-28T18:25:30.623Z,41.65
2022-10-28T18:30:36.681Z,47.40
2022-10-28T18:35:40.244Z,36.58
2022-10-28T18:40:48.035Z,35.22
2022-10-28T18:45:55.114Z,33.60
2022-10-28T18:50:59.164Z,38.30
2022-10-28T18:56:02.705Z,35.70
2022-10-28T19:01:09.810Z,33.58
2022-10-28T19:06:15.391Z,34.53
2022-10-28T19:11:19.203Z,32.70
2022-10-28T19:16:23.946Z,39.70
2022-10-28T19:21:28.879Z,42.20
2022-10-28T19:26:33.655Z,37.42
2022-10-28T19:31:47.090Z,39.28
2022-10-28T19:36:53.122Z,39.08
2022-10-28T19:42:00.675Z,38.47
2022-10-28T19:47:05.547Z,32.33
2022-10-28T19:52:08.917Z,43.45
2022-10-28T20:02:22.507Z,37.88
2022-10-28T20:07:25.955Z,31.13
2022-10-28T20:12:29.318Z,28.52
2022-10-28T20:17:34.087Z,31.85
2022-10-28T20:22:42.063Z,30.13
2022-10-28T20:27:46.284Z,31.70
2022-10-28T20:32:55.599Z,36.88
2022-10-28T20:37:59.537Z,38.47
2022-10-28T20:43:03.278Z,31.58
2022-10-28T20:48:08.272Z,31.58
2022-10-28T20:53:11.891Z,31.80
2022-10-28T20:58:15.264Z,46.03
2022-10-28T21:03:20.769Z,43.45
2022-10-28T21:08:24.094Z,47.78
2022-10-28T21:13:27.658Z,29.52
2022-10-28T21:18:32.958Z,24.15
2022-10-28T21:23:36.368Z,51.95
2022-10-28T21:28:41.440Z,34.92
2022-10-28T21:33:46.843Z,31.33
2022-10-28T21:38:54.448Z,25.17
2022-10-28T21:43:57.820Z,34.88
2022-10-28T21:49:02.563Z,30.25
2022-10-28T21:54:06.132Z,27.50
2022-10-28T21:59:09.650Z,29.42
2022-10-28T22:04:14.590Z,28.30
2022-10-28T22:09:18.036Z,26.80
2022-10-28T22:14:21.443Z,30.60
2022-10-28T22:19:26.312Z,30.90
2022-10-28T22:24:29.702Z,31.27
2022-10-28T22:29:33.236Z,39.10
2022-10-28T22:34:37.903Z,41.08
2022-10-28T22:39:41.397Z,31.20
2022-10-28T22:44:44.748Z,31.27
2022-10-28T22:49:49.495Z,27.85
2022-10-28T22:54:52.926Z,23.80
2022-10-28T22:59:56.297Z,23.02
2022-10-28T23:05:00.992Z,23.20
2022-10-28T23:10:04.985Z,23.67
2022-10-28T23:15:09.482Z,23.27
2022-10-28T23:20:14.554Z,25.65
2022-10-28T23:25:18.165Z,24.35
2022-10-28T23:30:21.639Z,26.35
2022-10-28T23:35:26.586Z,23.52
2022-10-28T23:40:30.081Z,21.88
2022-10-28T23:45:33.493Z,25.27
2022-10-28T23:50:38.256Z,30.67
2022-10-28T23:55:43.450Z,21.15
